createdAt,value
2018-12-13T00:00:34.471Z,6.57
2018-12-13T00:03:01.947Z,7.73
2018-12-13T00:05:29.372Z,6.80
2018-12-13T00:07:56.802Z,6.53
2018-12-13T00:10:24.264Z,7.17
2018-12-13T00:12:51.785Z,6.87
2018-12-13T00:15:21.162Z,7.10
2018-12-13T00:17:48.735Z,7.80
2018-12-13T00:20:16.193Z,7.30
2018-12-13T00:22:43.630Z,7.30
2018-12-13T00:25:11.114Z,6.70
2018-12-13T00:27:38.566Z,6.87
2018-12-13T00:30:07.676Z,6.63
2018-12-13T00:32:35.146Z,6.97
2018-12-13T00:35:02.654Z,6.90
2018-12-13T00:37:30.103Z,6.83
2018-12-13T00:39:57.593Z,6.80
2018-12-13T00:42:25.056Z,7.60
2018-12-13T00:44:53.516Z,6.97
2018-12-13T00:47:20.968Z,6.60
2018-12-13T00:49:48.422Z,6.00
2018-12-13T00:52:15.862Z,6.23
2018-12-13T00:54:43.330Z,7.77
2018-12-13T00:57:10.788Z,6.90
2018-12-13T00:59:38.250Z,7.07
2018-12-13T01:02:05.824Z,5.97
2018-12-13T01:04:33.256Z,5.67
2018-12-13T01:07:01.053Z,5.97
2018-12-13T01:09:28.622Z,7.67
2018-12-13T01:11:56.077Z,7.00
2018-12-13T01:14:23.547Z,6.83
2018-12-13T01:16:51.033Z,7.30
2018-12-13T01:19:18.503Z,7.47
2018-12-13T01:21:46.019Z,6.57
2018-12-13T01:24:13.465Z,6.23
2018-12-13T01:26:40.913Z,5.83
2018-12-13T01:29:08.409Z,6.90
2018-12-13T01:31:35.862Z,7.47
2018-12-13T01:34:03.311Z,6.00
2018-12-13T01:36:30.809Z,7.27
2018-12-13T01:38:58.213Z,6.33
2018-12-13T01:41:25.652Z,6.27
2018-12-13T01:43:53.104Z,6.43
2018-12-13T01:46:21.490Z,7.13
2018-12-13T01:48:49.028Z,6.87
2018-12-13T01:51:16.461Z,7.23
2018-12-13T01:53:43.910Z,7.13
2018-12-13T01:56:11.344Z,6.13
2018-12-13T01:58:38.879Z,6.50
2018-12-13T02:01:06.338Z,6.77
2018-12-13T02:03:33.799Z,6.80
2018-12-13T02:06:01.242Z,6.80
2018-12-13T02:08:28.699Z,6.50
2018-12-13T02:10:56.199Z,6.00
2018-12-13T02:13:23.703Z,5.83
2018-12-13T02:15:51.138Z,6.17
2018-12-13T02:18:18.600Z,5.23
2018-12-13T02:20:46.062Z,6.50
2018-12-13T02:23:13.496Z,5.17
2018-12-13T02:25:41.259Z,6.13
2018-12-13T02:28:08.742Z,6.20
2018-12-13T02:30:36.197Z,7.23
2018-12-13T02:33:03.909Z,6.23
2018-12-13T02:35:31.431Z,6.30
2018-12-13T02:37:58.952Z,6.57
2018-12-13T02:40:28.067Z,5.70
2018-12-13T02:42:55.526Z,5.30
2018-12-13T02:45:23.008Z,6.33
2018-12-13T02:47:50.921Z,5.07
2018-12-13T02:50:18.464Z,5.70
2018-12-13T02:52:46.008Z,6.07
2018-12-13T02:55:13.475Z,6.87
2018-12-13T02:57:40.927Z,6.27
2018-12-13T03:00:08.633Z,6.17
2018-12-13T03:02:36.073Z,6.10
2018-12-13T03:05:04.731Z,5.50
2018-12-13T03:07:32.171Z,5.93
2018-12-13T03:09:59.596Z,5.90
2018-12-13T03:12:27.896Z,6.33
2018-12-13T03:14:55.328Z,6.60
2018-12-13T03:17:22.771Z,6.40
2018-12-13T03:19:50.234Z,6.43
2018-12-13T03:22:17.686Z,5.90
2018-12-13T03:24:45.110Z,6.53
2018-12-13T03:27:12.565Z,7.80
2018-12-13T03:29:40.075Z,6.70
2018-12-13T03:32:07.554Z,6.70
2018-12-13T03:34:35.092Z,6.80
2018-12-13T03:37:02.970Z,6.30
2018-12-13T03:39:30.424Z,6.60
2018-12-13T03:41:57.871Z,6.07
2018-12-13T03:44:25.454Z,6.20
2018-12-13T03:46:52.902Z,6.70
2018-12-13T03:49:20.407Z,6.67
2018-12-13T03:51:47.865Z,6.40
2018-12-13T03:54:15.281Z,6.90
2018-12-13T03:56:42.803Z,6.43
2018-12-13T03:59:10.369Z,7.63
2018-12-13T04:01:37.824Z,6.27
2018-12-13T04:04:05.346Z,6.50
2018-12-13T04:06:32.887Z,6.20
2018-12-13T04:09:00.412Z,7.33
2018-12-13T04:11:27.839Z,5.90
2018-12-13T04:13:56.836Z,6.43
2018-12-13T04:16:24.278Z,6.30
2018-12-13T04:18:51.738Z,6.70
2018-12-13T04:21:19.230Z,6.50
2018-12-13T04:23:46.711Z,5.70
2018-12-13T04:26:14.144Z,6.40
2018-12-13T04:28:41.587Z,6.67
2018-12-13T04:31:09.042Z,7.40
2018-12-13T04:33:36.554Z,8.30
2018-12-13T04:36:04.109Z,7.87
2018-12-13T04:38:31.537Z,8.30
2018-12-13T04:40:59.002Z,7.17
2018-12-13T04:43:26.439Z,8.10
2018-12-13T04:45:54.490Z,7.03
2018-12-13T04:48:22.047Z,8.03
2018-12-13T04:50:49.945Z,7.00
2018-12-13T04:53:17.401Z,8.37
2018-12-13T04:55:44.926Z,7.00
2018-12-13T04:58:12.381Z,7.23
2018-12-13T05:00:39.860Z,8.07
2018-12-13T05:03:07.312Z,7.67
2018-12-13T05:05:34.777Z,7.07
2018-12-13T05:08:02.236Z,7.03
2018-12-13T05:10:56.007Z,6.80
2018-12-13T05:13:23.893Z,7.43
2018-12-13T05:15:51.331Z,7.90
2018-12-13T05:18:18.921Z,8.33
2018-12-13T05:20:46.372Z,8.10
2018-12-13T05:23:13.918Z,7.47
2018-12-13T05:25:41.414Z,8.80
2018-12-13T05:28:08.837Z,7.90
2018-12-13T05:30:36.405Z,8.20
2018-12-13T05:33:03.971Z,7.80
2018-12-13T05:35:31.412Z,6.73
2018-12-13T05:37:58.855Z,7.90
2018-12-13T05:40:26.280Z,8.73
2018-12-13T05:42:53.826Z,8.57
2018-12-13T05:45:21.328Z,8.87
2018-12-13T05:47:48.863Z,9.00
2018-12-13T05:50:16.340Z,8.67
2018-12-13T05:52:43.787Z,8.17
2018-12-13T05:55:11.212Z,9.43
2018-12-13T05:57:38.658Z,10.17
2018-12-13T06:00:07.877Z,9.50
2018-12-13T06:02:35.382Z,9.23
2018-12-13T06:05:02.843Z,8.90
2018-12-13T06:07:30.302Z,8.40
2018-12-13T06:09:57.720Z,8.30
2018-12-13T06:12:25.228Z,7.93
2018-12-13T06:14:53.043Z,8.47
2018-12-13T06:17:20.516Z,8.53
2018-12-13T06:19:48.269Z,9.27
2018-12-13T06:22:15.708Z,10.30
2018-12-13T06:24:43.231Z,10.03
2018-12-13T06:27:10.669Z,8.90
2018-12-13T06:29:41.823Z,9.57
2018-12-13T06:32:07.543Z,9.00
2018-12-13T06:34:34.971Z,9.60
2018-12-13T06:37:02.956Z,8.03
2018-12-13T06:39:30.578Z,8.73
2018-12-13T06:41:58.010Z,9.63
2018-12-13T06:44:25.460Z,9.23
2018-12-13T06:46:53.007Z,8.33
2018-12-13T06:49:20.434Z,9.33
2018-12-13T06:51:47.861Z,9.03
2018-12-13T06:54:15.303Z,8.90
2018-12-13T06:56:42.723Z,7.60
2018-12-13T06:59:10.159Z,8.70
2018-12-13T07:01:37.704Z,9.10
2018-12-13T07:04:05.185Z,8.93
2018-12-13T07:06:32.630Z,8.17
2018-12-13T07:09:00.094Z,7.40
2018-12-13T07:11:27.541Z,8.97
2018-12-13T07:13:55.030Z,7.83
2018-12-13T07:16:22.467Z,8.03
2018-12-13T07:18:49.988Z,8.00
2018-12-13T07:21:17.416Z,7.20
2018-12-13T07:23:45.183Z,8.23
2018-12-13T07:26:12.696Z,7.70
2018-12-13T07:28:40.214Z,7.80
2018-12-13T07:31:08.614Z,8.13
2018-12-13T07:33:36.150Z,8.60
2018-12-13T07:36:03.622Z,7.13
2018-12-13T07:38:31.057Z,7.90
2018-12-13T07:40:58.495Z,7.33
2018-12-13T07:43:26.073Z,8.07
2018-12-13T07:45:53.579Z,8.50
2018-12-13T07:48:21.044Z,8.57
2018-12-13T07:50:48.457Z,9.13
2018-12-13T07:53:15.945Z,8.57
2018-12-13T07:55:43.414Z,9.10
2018-12-13T07:58:10.860Z,8.83
2018-12-13T08:00:38.299Z,8.67
2018-12-13T08:03:05.920Z,8.70
2018-12-13T08:05:33.358Z,9.60
2018-12-13T08:08:01.865Z,9.57
2018-12-13T08:10:29.791Z,10.50
2018-12-13T08:12:57.223Z,10.17
2018-12-13T08:15:24.676Z,9.50
2018-12-13T08:17:52.124Z,9.10
2018-12-13T08:20:19.528Z,8.30
2018-12-13T08:22:47.008Z,9.30
2018-12-13T08:25:14.479Z,9.53
2018-12-13T08:27:41.900Z,8.53
2018-12-13T08:30:09.731Z,7.53
2018-12-13T08:32:37.203Z,8.20
2018-12-13T08:35:05.053Z,8.30
2018-12-13T08:37:32.505Z,8.40
2018-12-13T08:40:00.012Z,8.40
2018-12-13T08:42:27.459Z,7.90
2018-12-13T08:44:55.024Z,8.20
2018-12-13T08:47:22.567Z,7.90
2018-12-13T08:49:50.053Z,8.30
2018-12-13T08:52:17.515Z,7.70
2018-12-13T08:54:45.040Z,8.07
2018-12-13T08:57:12.640Z,8.50
2018-12-13T08:59:40.093Z,8.73
2018-12-13T09:02:08.148Z,8.90
2018-12-13T09:04:35.586Z,9.03
2018-12-13T09:07:03.018Z,8.67
2018-12-13T09:09:30.466Z,8.60
2018-12-13T09:11:57.969Z,9.43
2018-12-13T09:14:25.443Z,9.07
2018-12-13T09:16:53.052Z,8.70
2018-12-13T09:19:20.497Z,10.07
2018-12-13T09:21:47.967Z,9.07
2018-12-13T09:24:15.424Z,9.90
2018-12-13T09:26:43.149Z,9.87
2018-12-13T09:29:10.593Z,10.83
2018-12-13T09:31:38.151Z,10.93
2018-12-13T09:34:05.693Z,11.23
2018-12-13T09:36:33.132Z,8.67
2018-12-13T09:39:01.646Z,8.57
2018-12-13T09:41:29.086Z,9.17
2018-12-13T09:43:56.556Z,10.07
2018-12-13T09:46:23.999Z,12.17
2018-12-13T09:48:51.476Z,11.90
2018-12-13T09:51:18.927Z,11.30
2018-12-13T09:53:46.367Z,11.73
2018-12-13T09:56:14.876Z,10.83
2018-12-13T09:58:42.329Z,10.30
2018-12-13T10:01:09.772Z,9.63
2018-12-13T10:03:37.206Z,9.80
2018-12-13T10:06:04.734Z,10.17
2018-12-13T10:08:32.160Z,9.77
2018-12-13T10:10:59.625Z,10.03
2018-12-13T10:13:27.078Z,9.67
2018-12-13T10:15:54.514Z,9.87
2018-12-13T10:18:21.982Z,10.30
2018-12-13T10:20:49.414Z,9.30
2018-12-13T10:23:16.865Z,8.97
2018-12-13T10:25:44.431Z,8.73
2018-12-13T10:28:11.896Z,8.90
2018-12-13T10:30:39.449Z,9.87
2018-12-13T10:33:06.895Z,10.90
2018-12-13T10:35:34.314Z,11.13
2018-12-13T10:38:01.830Z,11.50
2018-12-13T10:40:29.313Z,10.10
2018-12-13T10:42:56.743Z,10.47
2018-12-13T10:45:24.156Z,9.70
2018-12-13T10:47:51.665Z,9.50
2018-12-13T10:50:19.092Z,10.50
2018-12-13T10:52:46.604Z,10.00
2018-12-13T10:55:14.165Z,9.17
2018-12-13T10:57:41.596Z,9.43
2018-12-13T11:00:11.244Z,11.13
2018-12-13T11:02:52.670Z,9.90
2018-12-13T11:05:20.185Z,11.77
2018-12-13T11:07:47.647Z,11.47
2018-12-13T11:10:15.127Z,9.67
2018-12-13T11:12:42.588Z,10.03
2018-12-13T11:15:10.127Z,11.60
2018-12-13T11:17:38.004Z,9.80
2018-12-13T11:20:05.541Z,10.10
2018-12-13T11:22:32.998Z,10.50
2018-12-13T11:25:00.493Z,9.63
2018-12-13T11:27:39.942Z,10.23
2018-12-13T11:30:20.424Z,11.00
2018-12-13T11:32:47.860Z,8.70
2018-12-13T11:35:15.481Z,9.23
2018-12-13T11:37:42.994Z,10.23
2018-12-13T11:40:10.508Z,8.80
2018-12-13T11:42:38.012Z,10.60
2018-12-13T11:45:05.773Z,9.50
2018-12-13T11:47:33.228Z,9.77
2018-12-13T11:50:00.682Z,10.77
2018-12-13T11:52:28.133Z,8.43
2018-12-13T11:54:56.833Z,9.23
2018-12-13T11:57:24.323Z,8.87
2018-12-13T11:59:51.756Z,8.80
2018-12-13T12:02:23.943Z,8.90
2018-12-13T12:04:48.652Z,8.80
2018-12-13T12:07:16.614Z,9.90
2018-12-13T12:09:44.072Z,10.13
2018-12-13T12:12:11.615Z,7.70
2018-12-13T12:14:39.044Z,8.57
2018-12-13T12:17:06.480Z,8.20
2018-12-13T12:19:34.008Z,9.40
2018-12-13T12:22:01.496Z,9.67
2018-12-13T12:24:28.992Z,9.73
2018-12-13T12:26:56.543Z,9.50
2018-12-13T12:29:24.175Z,9.37
2018-12-13T12:31:51.656Z,10.67
2018-12-13T12:34:19.216Z,10.00
2018-12-13T12:36:46.640Z,9.60
2018-12-13T12:39:18.499Z,9.13
2018-12-13T12:41:43.534Z,8.50
2018-12-13T12:44:10.984Z,9.20
2018-12-13T12:46:38.694Z,7.83
2018-12-13T12:49:06.718Z,9.03
2018-12-13T12:51:34.202Z,9.00
2018-12-13T12:54:01.654Z,8.93
2018-12-13T12:56:29.082Z,7.93
2018-12-13T12:58:56.497Z,8.93
2018-12-13T13:01:25.574Z,8.17
2018-12-13T13:03:53.034Z,8.27
2018-12-13T13:06:21.823Z,8.50
2018-12-13T13:08:49.297Z,7.60
2018-12-13T13:11:16.763Z,8.60
2018-12-13T13:13:44.248Z,7.80
2018-12-13T13:16:12.578Z,8.60
2018-12-13T13:18:40.001Z,8.47
2018-12-13T13:21:07.531Z,9.60
2018-12-13T13:23:34.984Z,7.20
2018-12-13T13:26:02.502Z,7.87
2018-12-13T13:28:30.031Z,8.27
2018-12-13T13:30:57.586Z,7.77
2018-12-13T13:33:25.049Z,9.80
2018-12-13T13:35:52.885Z,8.67
2018-12-13T13:38:20.370Z,7.93
2018-12-13T13:40:47.821Z,8.27
2018-12-13T13:43:15.523Z,8.37
2018-12-13T13:45:43.085Z,8.90
2018-12-13T13:48:10.545Z,8.80
2018-12-13T13:50:37.994Z,7.87
2018-12-13T13:53:05.455Z,9.13
2018-12-13T13:55:32.923Z,8.70
2018-12-13T13:58:00.398Z,8.43
2018-12-13T14:00:27.933Z,10.17
2018-12-13T14:02:55.425Z,7.83
2018-12-13T14:05:22.989Z,7.07
2018-12-13T14:07:50.413Z,7.43
2018-12-13T14:10:17.874Z,8.67
2018-12-13T14:12:45.347Z,8.20
2018-12-13T14:15:12.827Z,7.90
2018-12-13T14:17:40.273Z,7.43
2018-12-13T14:20:08.156Z,8.10
2018-12-13T14:22:35.632Z,8.30
2018-12-13T14:25:03.266Z,7.57
2018-12-13T14:27:30.722Z,8.43
2018-12-13T14:29:58.190Z,8.77
2018-12-13T14:32:25.636Z,7.70
2018-12-13T14:34:57.506Z,8.10
2018-12-13T14:37:22.782Z,11.17
2018-12-13T14:39:50.658Z,10.50
2018-12-13T14:42:18.610Z,10.07
2018-12-13T14:44:46.182Z,10.13
2018-12-13T14:47:13.726Z,9.10
2018-12-13T14:49:41.300Z,10.80
2018-12-13T14:52:08.771Z,11.50
2018-12-13T14:54:36.387Z,12.27
2018-12-13T14:57:04.114Z,11.27
2018-12-13T14:59:31.551Z,8.03
2018-12-13T15:01:59.587Z,9.97
2018-12-13T15:04:27.044Z,8.90
2018-12-13T15:06:54.497Z,8.43
2018-12-13T15:09:22.166Z,9.87
2018-12-13T15:11:49.607Z,12.00
2018-12-13T15:14:17.328Z,9.47
2018-12-13T15:16:44.779Z,10.80
2018-12-13T15:19:12.217Z,8.90
2018-12-13T15:21:39.853Z,9.80
2018-12-13T15:24:07.753Z,9.10
2018-12-13T15:26:35.170Z,9.97
2018-12-13T15:29:02.613Z,15.40
2018-12-13T15:31:30.069Z,16.87
2018-12-13T15:33:57.541Z,14.30
2018-12-13T15:36:24.993Z,18.90
2018-12-13T15:38:52.768Z,18.00
2018-12-13T15:41:20.208Z,13.10
2018-12-13T15:43:47.757Z,15.10
2018-12-13T15:46:15.198Z,10.33
2018-12-13T15:48:42.681Z,12.50
2018-12-13T15:51:10.276Z,12.07
2018-12-13T15:53:37.712Z,9.47
2018-12-13T15:56:05.179Z,9.30
2018-12-13T15:58:32.976Z,8.90
2018-12-13T16:01:00.433Z,10.40
2018-12-13T16:03:27.890Z,8.30
2018-12-13T16:05:55.341Z,9.80
2018-12-13T16:08:22.846Z,10.00
2018-12-13T16:10:50.258Z,8.10
2018-12-13T16:13:17.708Z,8.73
2018-12-13T16:15:45.230Z,8.67
2018-12-13T16:18:12.691Z,7.70
2018-12-13T16:20:40.164Z,7.37
2018-12-13T16:23:07.668Z,6.37
2018-12-13T16:25:35.207Z,7.50
2018-12-13T16:28:02.657Z,8.70
2018-12-13T16:30:30.382Z,8.90
2018-12-13T16:32:57.849Z,9.90
2018-12-13T16:35:25.369Z,8.57
2018-12-13T16:37:52.866Z,7.53
2018-12-13T16:40:20.888Z,7.70
2018-12-13T16:42:48.391Z,8.20
2018-12-13T16:45:16.093Z,8.23
2018-12-13T16:47:43.658Z,8.27
2018-12-13T16:50:11.171Z,6.77
2018-12-13T16:52:38.621Z,8.23
2018-12-13T16:55:07.178Z,7.97
2018-12-13T16:57:34.722Z,7.70
2018-12-13T17:00:02.246Z,9.00
2018-12-13T17:02:29.785Z,8.17
2018-12-13T17:05:03.172Z,9.13
2018-12-13T17:07:26.976Z,10.00
2018-12-13T17:09:54.406Z,9.53
2018-12-13T17:12:21.888Z,9.57
2018-12-13T17:14:49.447Z,8.70
2018-12-13T17:17:16.997Z,8.70
2018-12-13T17:19:44.467Z,10.40
2018-12-13T17:22:11.986Z,9.60
2018-12-13T17:24:39.452Z,8.10
2018-12-13T17:27:07.345Z,9.17
2018-12-13T17:29:34.777Z,9.60
2018-12-13T17:32:02.273Z,9.33
2018-12-13T17:34:29.729Z,9.00
2018-12-13T17:36:57.186Z,10.37
2018-12-13T17:39:24.695Z,10.37
2018-12-13T17:41:52.323Z,11.83
2018-12-13T17:44:19.773Z,9.40
2018-12-13T17:46:47.228Z,12.40
2018-12-13T17:49:14.808Z,8.80
2018-12-13T17:51:42.335Z,9.33
2018-12-13T17:54:09.814Z,9.53
2018-12-13T17:56:37.288Z,10.13
2018-12-13T17:59:04.782Z,9.70
2018-12-13T18:01:32.276Z,9.30
2018-12-13T18:03:59.814Z,10.13
2018-12-13T18:06:27.347Z,8.57
2018-12-13T18:08:54.822Z,10.03
2018-12-13T18:11:22.329Z,9.60
2018-12-13T18:13:50.580Z,8.27
2018-12-13T18:16:18.151Z,8.67
2018-12-13T18:18:45.690Z,10.40
2018-12-13T18:21:13.183Z,10.37
2018-12-13T18:23:40.741Z,11.10
2018-12-13T18:26:09.180Z,9.80
2018-12-13T18:28:36.702Z,9.40
2018-12-13T18:31:04.174Z,9.50
2018-12-13T18:33:31.719Z,8.97
2018-12-13T18:35:59.309Z,9.10
2018-12-13T18:38:26.883Z,10.03
2018-12-13T18:40:54.369Z,9.03
2018-12-13T18:43:21.941Z,9.50
2018-12-13T18:45:51.967Z,10.80
2018-12-13T18:48:19.546Z,8.90
2018-12-13T18:50:47.026Z,9.50
2018-12-13T18:53:14.505Z,11.40
2018-12-13T18:55:42.017Z,11.33
2018-12-13T18:58:09.534Z,10.53
2018-12-13T19:00:36.967Z,8.17
2018-12-13T19:03:04.459Z,9.23
2018-12-13T19:05:31.938Z,10.57
2018-12-13T19:07:59.488Z,9.20
2018-12-13T19:10:26.982Z,9.10
2018-12-13T19:12:54.486Z,9.97
2018-12-13T19:15:21.939Z,10.00
2018-12-13T19:17:49.482Z,9.30
2018-12-13T19:20:16.965Z,9.80
2018-12-13T19:22:44.487Z,10.20
2018-12-13T19:25:12.049Z,11.03
2018-12-13T19:27:39.967Z,10.43
2018-12-13T19:30:08.152Z,10.27
2018-12-13T19:32:35.672Z,11.57
2018-12-13T19:35:03.265Z,11.37
2018-12-13T19:37:30.836Z,10.20
2018-12-13T19:39:58.371Z,11.27
2018-12-13T19:42:25.822Z,9.93
2018-12-13T19:44:53.665Z,10.83
2018-12-13T19:47:21.660Z,11.03
2018-12-13T19:49:49.092Z,9.60
2018-12-13T19:52:16.601Z,8.80
2018-12-13T19:54:44.161Z,8.93
2018-12-13T19:57:11.750Z,9.50
2018-12-13T19:59:39.298Z,8.57
2018-12-13T20:02:06.834Z,8.90
2018-12-13T20:04:34.334Z,9.27
2018-12-13T20:07:01.907Z,8.37
2018-12-13T20:09:29.452Z,9.97
2018-12-13T20:11:56.880Z,8.27
2018-12-13T20:14:24.408Z,8.60
2018-12-13T20:16:51.957Z,9.50
2018-12-13T20:19:19.480Z,8.80
2018-12-13T20:21:46.930Z,8.77
2018-12-13T20:24:14.418Z,10.70
2018-12-13T20:26:41.864Z,8.83
2018-12-13T20:29:09.667Z,9.47
2018-12-13T20:31:37.092Z,9.30
2018-12-13T20:34:04.595Z,9.53
2018-12-13T20:36:32.051Z,8.50
2018-12-13T20:38:59.510Z,7.83
2018-12-13T20:41:26.963Z,8.10
2018-12-13T20:43:54.443Z,10.60
2018-12-13T20:46:21.886Z,9.03
2018-12-13T20:48:49.422Z,9.10
2018-12-13T20:51:17.016Z,9.90
2018-12-13T20:53:44.488Z,8.90
2018-12-13T20:56:12.013Z,9.50
2018-12-13T20:58:39.590Z,8.97
2018-12-13T21:01:07.382Z,9.73
2018-12-13T21:03:34.833Z,8.57
2018-12-13T21:06:02.321Z,8.73
2018-12-13T21:08:29.768Z,12.90
2018-12-13T21:10:57.356Z,11.00
2018-12-13T21:13:24.869Z,8.00
2018-12-13T21:15:52.451Z,8.13
2018-12-13T21:18:19.937Z,10.97
2018-12-13T21:20:47.378Z,9.13
2018-12-13T21:23:14.844Z,9.50
2018-12-13T21:25:42.309Z,8.13
2018-12-13T21:28:09.780Z,8.47
2018-12-13T21:30:37.322Z,9.17
2018-12-13T21:33:04.757Z,8.80
2018-12-13T21:35:32.193Z,7.73
2018-12-13T21:38:00.547Z,8.47
2018-12-13T21:40:28.124Z,8.40
2018-12-13T21:42:55.591Z,7.80
2018-12-13T21:45:23.055Z,7.70
2018-12-13T21:47:50.512Z,8.33
2018-12-13T21:50:18.045Z,9.47
2018-12-13T21:52:45.476Z,9.30
2018-12-13T21:55:13.109Z,8.40
2018-12-13T21:57:40.645Z,10.27
2018-12-13T22:00:10.099Z,12.07
2018-12-13T22:02:37.567Z,11.27
2018-12-13T22:05:05.773Z,10.20
2018-12-13T22:07:33.226Z,10.50
2018-12-13T22:10:00.685Z,8.87
2018-12-13T22:12:28.163Z,8.43
2018-12-13T22:15:02.388Z,8.87
2018-12-13T22:17:25.871Z,11.33
2018-12-13T22:19:53.324Z,8.20
2018-12-13T22:22:20.812Z,7.50
2018-12-13T22:24:48.262Z,8.23
2018-12-13T22:27:15.745Z,9.10
2018-12-13T22:29:43.200Z,7.30
2018-12-13T22:32:10.859Z,8.13
2018-12-13T22:34:38.564Z,7.87
2018-12-13T22:37:06.155Z,8.77
2018-12-13T22:39:33.649Z,8.00
2018-12-13T22:42:01.140Z,7.03
2018-12-13T22:44:29.017Z,8.50
2018-12-13T22:46:56.935Z,7.70
2018-12-13T22:49:24.997Z,6.50
2018-12-13T22:51:52.553Z,8.30
2018-12-13T22:54:20.004Z,7.50
2018-12-13T22:56:47.522Z,6.50
2018-12-13T22:59:14.932Z,7.20
2018-12-13T23:01:42.438Z,7.77
2018-12-13T23:04:09.922Z,8.90
2018-12-13T23:06:37.361Z,7.40
2018-12-13T23:09:06.126Z,7.53
2018-12-13T23:11:34.894Z,8.57
2018-12-13T23:14:02.438Z,8.10
2018-12-13T23:16:29.975Z,8.00
2018-12-13T23:18:57.455Z,6.90
2018-12-13T23:21:24.902Z,6.90
2018-12-13T23:23:52.435Z,8.97
2018-12-13T23:26:19.906Z,8.43
2018-12-13T23:28:47.352Z,8.17
2018-12-13T23:31:14.829Z,7.87
2018-12-13T23:33:42.260Z,8.10
2018-12-13T23:36:09.691Z,8.07
2018-12-13T23:38:37.224Z,8.63
2018-12-13T23:41:04.690Z,7.87
2018-12-13T23:43:32.154Z,8.37
2018-12-13T23:45:59.597Z,8.30
2018-12-13T23:48:27.049Z,7.50
2018-12-13T23:50:55.551Z,8.40
2018-12-13T23:53:23.784Z,8.03
2018-12-13T23:55:51.377Z,7.60
2018-12-13T23:58:18.866Z,8.10
